sensor_id;sensor_type;location;lat;lon;timestamp;pressure;altitude;pressure_sealevel;temperature;humidity
3260;BME280;68938;48.150;14.004;2023-04-09T00:00:12;98706.56;;;9.35;66.51
3260;BME280;68938;48.150;14.004;2023-04-09T00:02:39;98704.91;;;9.34;66.21
3260;BME280;68938;48.150;14.004;2023-04-09T00:05:07;98692.97;;;9.31;66.28
3260;BME280;68938;48.150;14.004;2023-04-09T00:07:34;98696.38;;;9.32;66.28
3260;BME280;68938;48.150;14.004;2023-04-09T00:10:01;98700.66;;;9.31;66.28
3260;BME280;68938;48.150;14.004;2023-04-09T00:12:27;98701.41;;;9.36;66.27
3260;BME280;68938;48.150;14.004;2023-04-09T00:14:55;98698.84;;;9.36;66.33
3260;BME280;68938;48.150;14.004;2023-04-09T00:17:22;98687.78;;;9.36;66.28
3260;BME280;68938;48.150;14.004;2023-04-09T00:19:49;98692.88;;;9.37;66.27
3260;BME280;68938;48.150;14.004;2023-04-09T00:22:16;98690.34;;;9.37;66.04
3260;BME280;68938;48.150;14.004;2023-04-09T00:24:43;98695.44;;;9.37;66.47
3260;BME280;68938;48.150;14.004;2023-04-09T00:27:10;98690.34;;;9.37;66.22
3260;BME280;68938;48.150;14.004;2023-04-09T00:29:36;98680.94;;;9.36;66.04
3260;BME280;68938;48.150;14.004;2023-04-09T00:32:04;98687.78;;;9.37;66.19
3260;BME280;68938;48.150;14.004;2023-04-09T00:34:31;98683.59;;;9.32;66.20
3260;BME280;68938;48.150;14.004;2023-04-09T00:36:58;98694.59;;;9.37;66.33
3260;BME280;68938;48.150;14.004;2023-04-09T00:39:24;98698.84;;;9.36;66.48
3260;BME280;68938;48.150;14.004;2023-04-09T00:41:56;98701.50;;;9.32;66.50
3260;BME280;68938;48.150;14.004;2023-04-09T00:44:24;98696.47;;;9.27;66.61
3260;BME280;68938;48.150;14.004;2023-04-09T00:46:51;98688.88;;;9.21;66.84
3260;BME280;68938;48.150;14.004;2023-04-09T00:49:20;98693.19;;;9.16;67.20
3260;BME280;68938;48.150;14.004;2023-04-09T00:51:48;98699.16;;;9.18;67.17
3260;BME280;68938;48.150;14.004;2023-04-09T00:54:15;98697.53;;;9.12;67.02
3260;BME280;68938;48.150;14.004;2023-04-09T00:56:43;98699.31;;;9.06;67.50
3260;BME280;68938;48.150;14.004;2023-04-09T00:59:10;98699.41;;;9.02;67.75
3260;BME280;68938;48.150;14.004;2023-04-09T01:01:37;98699.50;;;8.95;68.01
3260;BME280;68938;48.150;14.004;2023-04-09T01:04:04;98704.59;;;8.95;68.12
3260;BME280;68938;48.150;14.004;2023-04-09T01:06:52;98707.16;;;8.96;67.95
3260;BME280;68938;48.150;14.004;2023-04-09T01:09:46;98692.72;;;8.91;68.25
3260;BME280;68938;48.150;14.004;2023-04-09T01:12:35;98699.88;;;8.69;68.96
3260;BME280;68938;48.150;14.004;2023-04-09T01:15:12;98694.19;;;8.44;69.63
3260;BME280;68938;48.150;14.004;2023-04-09T01:17:49;98685.69;;;8.45;70.07
3260;BME280;68938;48.150;14.004;2023-04-09T01:20:36;98681.47;;;8.39;70.37
3260;BME280;68938;48.150;14.004;2023-04-09T01:26:17;98688.06;;;8.59;69.93
3260;BME280;68938;48.150;14.004;2023-04-09T01:28:52;98687.09;;;8.67;69.30
3260;BME280;68938;48.150;14.004;2023-04-09T01:31:25;98693.91;;;8.68;68.96
3260;BME280;68938;48.150;14.004;2023-04-09T01:33:56;98691.25;;;8.76;69.01
3260;BME280;68938;48.150;14.004;2023-04-09T01:36:25;98683.53;;;8.77;69.24
3260;BME280;68938;48.150;14.004;2023-04-09T01:38:54;98688.59;;;8.81;68.80
3260;BME280;68938;48.150;14.004;2023-04-09T01:41:22;98691.09;;;8.87;68.56
3260;BME280;68938;48.150;14.004;2023-04-09T01:43:51;98686.72;;;8.92;68.18
3260;BME280;68938;48.150;14.004;2023-04-09T01:46:20;98692.72;;;8.91;68.23
3260;BME280;68938;48.150;14.004;2023-04-09T01:48:48;98693.59;;;8.90;68.02
3260;BME280;68938;48.150;14.004;2023-04-09T01:51:15;98687.72;;;8.82;68.18
3260;BME280;68938;48.150;14.004;2023-04-09T01:53:42;98682.66;;;8.78;68.29
3260;BME280;68938;48.150;14.004;2023-04-09T01:56:09;98678.41;;;8.79;68.64
3260;BME280;68938;48.150;14.004;2023-04-09T01:58:36;98686.97;;;8.76;68.78
3260;BME280;68938;48.150;14.004;2023-04-09T02:01:32;98688.69;;;8.74;68.81
3260;BME280;68938;48.150;14.004;2023-04-09T02:04:03;98689.81;;;8.55;69.41
3260;BME280;68938;48.150;14.004;2023-04-09T02:06:52;98685.75;;;8.39;70.10
3260;BME280;68938;48.150;14.004;2023-04-09T02:09:23;98686.69;;;8.27;70.88
3260;BME280;68938;48.150;14.004;2023-04-09T02:11:51;98680.66;;;8.34;70.70
3260;BME280;68938;48.150;14.004;2023-04-09T02:14:19;98687.47;;;8.34;70.40
3260;BME280;68938;48.150;14.004;2023-04-09T02:16:48;98683.19;;;8.34;70.58
3260;BME280;68938;48.150;14.004;2023-04-09T02:19:15;98688.22;;;8.46;70.26
3260;BME280;68938;48.150;14.004;2023-04-09T02:21:41;98685.59;;;8.51;70.52
3260;BME280;68938;48.150;14.004;2023-04-09T02:24:08;98676.38;;;8.39;70.10
3260;BME280;68938;48.150;14.004;2023-04-09T02:26:35;98681.47;;;8.36;70.69
3260;BME280;68938;48.150;14.004;2023-04-09T02:29:02;98681.41;;;8.45;70.54
3260;BME280;68938;48.150;14.004;2023-04-09T02:31:29;98688.31;;;8.36;70.62
3260;BME280;68938;48.150;14.004;2023-04-09T02:33:56;98685.75;;;8.36;70.66
3260;BME280;68938;48.150;14.004;2023-04-09T02:36:23;98690.94;;;8.31;70.88
3260;BME280;68938;48.150;14.004;2023-04-09T02:38:50;98688.66;;;8.05;71.97
3260;BME280;68938;48.150;14.004;2023-04-09T02:41:17;98692.00;;;8.10;71.66
3260;BME280;68938;48.150;14.004;2023-04-09T02:43:44;98692.69;;;8.26;71.13
3260;BME280;68938;48.150;14.004;2023-04-09T02:46:11;98700.22;;;8.40;71.17
3260;BME280;68938;48.150;14.004;2023-04-09T02:48:38;98691.59;;;8.47;70.30
3260;BME280;68938;48.150;14.004;2023-04-09T02:51:05;98692.38;;;8.55;70.14
3260;BME280;68938;48.150;14.004;2023-04-09T02:53:32;98687.19;;;8.60;70.17
3260;BME280;68938;48.150;14.004;2023-04-09T02:55:59;98685.41;;;8.65;70.46
3260;BME280;68938;48.150;14.004;2023-04-09T02:58:26;98687.91;;;8.68;70.26
3260;BME280;68938;48.150;14.004;2023-04-09T03:00:53;98679.38;;;8.72;70.14
3260;BME280;68938;48.150;14.004;2023-04-09T03:03:20;98679.41;;;8.67;70.26
3260;BME280;68938;48.150;14.004;2023-04-09T03:05:47;98680.28;;;8.65;70.21
3260;BME280;68938;48.150;14.004;2023-04-09T03:08:14;98681.13;;;8.68;70.21
3260;BME280;68938;48.150;14.004;2023-04-09T03:10:40;98680.16;;;8.75;69.90
3260;BME280;68938;48.150;14.004;2023-04-09T03:13:07;98680.25;;;8.69;70.04
3260;BME280;68938;48.150;14.004;2023-04-09T03:15:34;98678.75;;;8.53;70.15
3260;BME280;68938;48.150;14.004;2023-04-09T03:18:01;98683.03;;;8.52;70.51
3260;BME280;68938;48.150;14.004;2023-04-09T03:20:28;98680.44;;;8.54;70.57
3260;BME280;68938;48.150;14.004;2023-04-09T03:22:55;98676.19;;;8.53;70.44
3260;BME280;68938;48.150;14.004;2023-04-09T03:25:22;98673.69;;;8.50;70.79
3260;BME280;68938;48.150;14.004;2023-04-09T03:27:49;98679.63;;;8.52;70.88
3260;BME280;68938;48.150;14.004;2023-04-09T03:30:16;98681.22;;;8.59;70.35
3260;BME280;68938;48.150;14.004;2023-04-09T03:32:42;98675.16;;;8.65;70.67
3260;BME280;68938;48.150;14.004;2023-04-09T03:35:09;98672.53;;;8.71;70.29
3260;BME280;68938;48.150;14.004;2023-04-09T03:37:36;98671.75;;;8.67;70.31
3260;BME280;68938;48.150;14.004;2023-04-09T03:40:03;98671.78;;;8.66;70.50
3260;BME280;68938;48.150;14.004;2023-04-09T03:42:31;98662.47;;;8.60;70.53
3260;BME280;68938;48.150;14.004;2023-04-09T03:44:58;98669.19;;;8.67;70.71
3260;BME280;68938;48.150;14.004;2023-04-09T03:47:25;98675.97;;;8.70;70.26
3260;BME280;68938;48.150;14.004;2023-04-09T03:49:51;98672.56;;;8.69;70.27
3260;BME280;68938;48.150;14.004;2023-04-09T03:52:18;98664.09;;;8.66;70.46
3260;BME280;68938;48.150;14.004;2023-04-09T03:54:45;98666.66;;;8.66;70.46
3260;BME280;68938;48.150;14.004;2023-04-09T03:57:12;98668.34;;;8.67;70.29
3260;BME280;68938;48.150;14.004;2023-04-09T03:59:39;98668.41;;;8.61;70.71
3260;BME280;68938;48.150;14.004;2023-04-09T04:02:06;98661.72;;;8.50;70.27
3260;BME280;68938;48.150;14.004;2023-04-09T04:04:33;98660.00;;;8.52;70.07
3260;BME280;68938;48.150;14.004;2023-04-09T04:07:02;98665.97;;;8.53;70.12
3260;BME280;68938;48.150;14.004;2023-04-09T04:09:29;98662.59;;;8.49;70.42
3260;BME280;68938;48.150;14.004;2023-04-09T04:11:56;98665.06;;;8.57;69.71
3260;BME280;68938;48.150;14.004;2023-04-09T04:14:23;98673.53;;;8.61;69.90
3260;BME280;68938;48.150;14.004;2023-04-09T04:16:50;98671.78;;;8.64;69.71
3260;BME280;68938;48.150;14.004;2023-04-09T04:19:17;98672.69;;;8.62;69.63
3260;BME280;68938;48.150;14.004;2023-04-09T04:21:44;98664.28;;;8.52;70.03
3260;BME280;68938;48.150;14.004;2023-04-09T04:24:10;98665.22;;;8.45;69.94
3260;BME280;68938;48.150;14.004;2023-04-09T04:26:38;98670.41;;;8.34;70.55
3260;BME280;68938;48.150;14.004;2023-04-09T04:29:05;98670.44;;;8.32;70.52
3260;BME280;68938;48.150;14.004;2023-04-09T04:31:33;98661.94;;;8.30;70.39
3260;BME280;68938;48.150;14.004;2023-04-09T04:33:59;98677.25;;;8.34;70.45
3260;BME280;68938;48.150;14.004;2023-04-09T04:36:26;98681.53;;;8.35;70.19
3260;BME280;68938;48.150;14.004;2023-04-09T04:38:53;98677.28;;;8.30;70.48
3260;BME280;68938;48.150;14.004;2023-04-09T04:41:20;98685.81;;;8.31;70.61
3260;BME280;68938;48.150;14.004;2023-04-09T04:43:47;98690.19;;;8.21;71.30
3260;BME280;68938;48.150;14.004;2023-04-09T04:46:14;98691.13;;;8.14;70.97
3260;BME280;68938;48.150;14.004;2023-04-09T04:48:41;98688.81;;;7.90;72.21
3260;BME280;68938;48.150;14.004;2023-04-09T04:51:08;98683.66;;;7.94;72.58
3260;BME280;68938;48.150;14.004;2023-04-09T04:53:35;98689.63;;;7.95;72.22
3260;BME280;68938;48.150;14.004;2023-04-09T04:56:02;98686.16;;;7.99;72.37
3260;BME280;68938;48.150;14.004;2023-04-09T04:58:29;98695.41;;;8.14;72.08
3260;BME280;68938;48.150;14.004;2023-04-09T05:00:56;98697.03;;;8.18;71.92
3260;BME280;68938;48.150;14.004;2023-04-09T05:03:23;98694.38;;;8.27;71.63
3260;BME280;68938;48.150;14.004;2023-04-09T05:05:53;98693.56;;;8.25;71.76
3260;BME280;68938;48.150;14.004;2023-04-09T05:08:19;98686.75;;;8.22;71.89
3260;BME280;68938;48.150;14.004;2023-04-09T05:10:46;98695.38;;;8.15;72.15
3260;BME280;68938;48.150;14.004;2023-04-09T05:13:13;98704.75;;;8.13;72.26
3260;BME280;68938;48.150;14.004;2023-04-09T05:15:40;98688.69;;;8.02;71.79
3260;BME280;68938;48.150;14.004;2023-04-09T05:18:07;98696.38;;;8.00;72.63
3260;BME280;68938;48.150;14.004;2023-04-09T05:20:34;98699.91;;;7.87;73.05
3260;BME280;68938;48.150;14.004;2023-04-09T05:23:01;98694.69;;;8.01;72.63
3260;BME280;68938;48.150;14.004;2023-04-09T05:25:28;98692.94;;;8.03;72.60
3260;BME280;68938;48.150;14.004;2023-04-09T05:27:55;98703.94;;;8.10;72.45
3260;BME280;68938;48.150;14.004;2023-04-09T05:30:22;98696.16;;;8.19;72.08
3260;BME280;68938;48.150;14.004;2023-04-09T05:32:49;98704.59;;;8.27;71.81
3260;BME280;68938;48.150;14.004;2023-04-09T05:35:16;98703.16;;;8.03;72.52
3260;BME280;68938;48.150;14.004;2023-04-09T05:37:43;98704.72;;;8.16;72.68
3260;BME280;68938;48.150;14.004;2023-04-09T05:40:11;98706.38;;;8.20;72.44
3260;BME280;68938;48.150;14.004;2023-04-09T05:42:38;98711.38;;;8.31;71.88
3260;BME280;68938;48.150;14.004;2023-04-09T05:45:05;98714.88;;;8.24;72.15
3260;BME280;68938;48.150;14.004;2023-04-09T05:47:33;98712.22;;;8.31;71.99
3260;BME280;68938;48.150;14.004;2023-04-09T05:50:00;98712.09;;;8.44;71.31
3260;BME280;68938;48.150;14.004;2023-04-09T05:52:27;98722.28;;;8.47;71.71
3260;BME280;68938;48.150;14.004;2023-04-09T05:54:53;98721.38;;;8.52;71.28
3260;BME280;68938;48.150;14.004;2023-04-09T05:57:20;98719.63;;;8.54;71.45
3260;BME280;68938;48.150;14.004;2023-04-09T05:59:47;98722.16;;;8.58;71.07
3260;BME280;68938;48.150;14.004;2023-04-09T06:02:14;98721.31;;;8.59;71.08
3260;BME280;68938;48.150;14.004;2023-04-09T06:04:41;98728.19;;;8.52;71.40
3260;BME280;68938;48.150;14.004;2023-04-09T06:07:08;98726.44;;;8.54;71.30
3260;BME280;68938;48.150;14.004;2023-04-09T06:09:35;98726.59;;;8.45;72.19
3260;BME280;68938;48.150;14.004;2023-04-09T06:12:02;98729.91;;;8.51;71.90
3260;BME280;68938;48.150;14.004;2023-04-09T06:14:29;98726.44;;;8.54;72.25
3260;BME280;68938;48.150;14.004;2023-04-09T06:16:58;98734.09;;;8.59;72.25
3260;BME280;68938;48.150;14.004;2023-04-09T06:19:25;98728.88;;;8.65;71.87
3260;BME280;68938;48.150;14.004;2023-04-09T06:21:52;98722.31;;;8.45;72.34
3260;BME280;68938;48.150;14.004;2023-04-09T06:24:19;98720.53;;;8.50;71.73
3260;BME280;68938;48.150;14.004;2023-04-09T06:26:46;98728.88;;;8.65;71.79
3260;BME280;68938;48.150;14.004;2023-04-09T06:29:13;98736.50;;;8.69;71.65
3260;BME280;68938;48.150;14.004;2023-04-09T06:31:40;98733.91;;;8.72;71.39
3260;BME280;68938;48.150;14.004;2023-04-09T06:34:07;98741.78;;;8.54;71.85
3260;BME280;68938;48.150;14.004;2023-04-09T06:36:34;98740.88;;;8.60;72.21
3260;BME280;68938;48.150;14.004;2023-04-09T06:39:01;98740.81;;;8.64;71.92
3260;BME280;68938;48.150;14.004;2023-04-09T06:41:28;98746.81;;;8.63;71.67
3260;BME280;68938;48.150;14.004;2023-04-09T06:43:54;98745.09;;;8.65;71.78
3260;BME280;68938;48.150;14.004;2023-04-09T06:46:21;98746.81;;;8.63;72.29
3260;BME280;68938;48.150;14.004;2023-04-09T06:48:48;98740.16;;;8.50;72.71
3260;BME280;68938;48.150;14.004;2023-04-09T06:51:15;98750.31;;;8.54;73.04
3260;BME280;68938;48.150;14.004;2023-04-09T06:53:42;98752.81;;;8.59;72.68
3260;BME280;68938;48.150;14.004;2023-04-09T06:56:09;98759.66;;;8.57;73.14
3260;BME280;68938;48.150;14.004;2023-04-09T06:58:36;98756.13;;;8.69;72.73
3260;BME280;68938;48.150;14.004;2023-04-09T07:01:03;98761.22;;;8.72;72.73
3260;BME280;68938;48.150;14.004;2023-04-09T07:03:30;98761.94;;;8.78;72.72
3260;BME280;68938;48.150;14.004;2023-04-09T07:05:57;98759.28;;;8.88;72.27
3260;BME280;68938;48.150;14.004;2023-04-09T07:08:24;98751.69;;;8.82;72.62
3260;BME280;68938;48.150;14.004;2023-04-09T07:10:51;98760.22;;;8.81;72.62
3260;BME280;68938;48.150;14.004;2023-04-09T07:13:18;98775.47;;;8.88;72.41
3260;BME280;68938;48.150;14.004;2023-04-09T07:15:45;98772.03;;;8.91;72.98
3260;BME280;68938;48.150;14.004;2023-04-09T07:18:12;98765.19;;;8.91;72.71
3260;BME280;68938;48.150;14.004;2023-04-09T07:20:39;98761.69;;;8.98;72.49
3260;BME280;68938;48.150;14.004;2023-04-09T07:23:05;98766.78;;;9.03;72.71
3260;BME280;68938;48.150;14.004;2023-04-09T07:25:32;98768.50;;;9.01;72.76
3260;BME280;68938;48.150;14.004;2023-04-09T07:27:59;98771.78;;;9.09;72.91
3260;BME280;68938;48.150;14.004;2023-04-09T07:30:26;98773.50;;;9.09;72.64
3260;BME280;68938;48.150;14.004;2023-04-09T07:32:53;98776.09;;;9.06;72.56
3260;BME280;68938;48.150;14.004;2023-04-09T07:35:20;98771.84;;;9.06;72.47
3260;BME280;68938;48.150;14.004;2023-04-09T07:37:47;98778.53;;;9.15;72.49
3260;BME280;68938;48.150;14.004;2023-04-09T07:40:14;98775.19;;;9.13;72.60
3260;BME280;68938;48.150;14.004;2023-04-09T07:42:41;98776.94;;;9.08;72.60
3260;BME280;68938;48.150;14.004;2023-04-09T07:45:08;98775.47;;;8.88;73.36
3260;BME280;68938;48.150;14.004;2023-04-09T07:47:35;98768.50;;;9.02;73.22
3260;BME280;68938;48.150;14.004;2023-04-09T07:50:03;98766.66;;;9.09;73.12
3260;BME280;68938;48.150;14.004;2023-04-09T07:52:31;98770.16;;;9.02;72.98
3260;BME280;68938;48.150;14.004;2023-04-09T07:54:58;98758.19;;;9.06;73.60
3260;BME280;68938;48.150;14.004;2023-04-09T07:57:25;98765.66;;;9.21;73.29
3260;BME280;68938;48.150;14.004;2023-04-09T07:59:52;98774.91;;;9.31;73.00
3260;BME280;68938;48.150;14.004;2023-04-09T08:02:19;98775.81;;;9.27;72.75
3260;BME280;68938;48.150;14.004;2023-04-09T08:04:46;98778.22;;;9.36;72.42
3260;BME280;68938;48.150;14.004;2023-04-09T08:07:13;98782.53;;;9.34;72.71
3260;BME280;68938;48.150;14.004;2023-04-09T08:09:40;98779.94;;;9.37;72.39
3260;BME280;68938;48.150;14.004;2023-04-09T08:12:07;98786.31;;;9.07;73.01
3260;BME280;68938;48.150;14.004;2023-04-09T08:14:34;98781.06;;;9.18;73.79
3260;BME280;68938;48.150;14.004;2023-04-09T08:17:01;98782.47;;;9.39;73.37
3260;BME280;68938;48.150;14.004;2023-04-09T08:19:28;98789.38;;;9.32;73.49
3260;BME280;68938;48.150;14.004;2023-04-09T08:21:54;98789.38;;;9.34;73.08
3260;BME280;68938;48.150;14.004;2023-04-09T08:24:21;98784.00;;;9.51;72.71
3260;BME280;68938;48.150;14.004;2023-04-09T08:26:48;98792.38;;;9.62;72.63
3260;BME280;68938;48.150;14.004;2023-04-09T08:29:15;98787.16;;;9.68;72.45
3260;BME280;68938;48.150;14.004;2023-04-09T08:31:42;98789.59;;;9.76;72.73
3260;BME280;68938;48.150;14.004;2023-04-09T08:34:09;98791.09;;;9.87;72.17
3260;BME280;68938;48.150;14.004;2023-04-09T08:36:36;98782.50;;;9.90;72.69
3260;BME280;68938;48.150;14.004;2023-04-09T08:39:03;98797.66;;;10.05;72.22
3260;BME280;68938;48.150;14.004;2023-04-09T08:41:30;98796.66;;;10.12;71.74
3260;BME280;68938;48.150;14.004;2023-04-09T08:43:57;98796.56;;;10.17;71.49
3260;BME280;68938;48.150;14.004;2023-04-09T08:46:26;98798.34;;;10.13;71.15
3260;BME280;68938;48.150;14.004;2023-04-09T08:48:54;98801.66;;;10.18;71.42
3260;BME280;68938;48.150;14.004;2023-04-09T08:51:23;98807.56;;;10.27;71.08
3260;BME280;68938;48.150;14.004;2023-04-09T08:53:58;98805.88;;;10.26;70.75
3260;BME280;68938;48.150;14.004;2023-04-09T08:56:29;98806.75;;;10.21;70.90
3260;BME280;68938;48.150;14.004;2023-04-09T08:58:56;98812.69;;;10.27;70.80
3260;BME280;68938;48.150;14.004;2023-04-09T09:01:28;98807.41;;;10.36;70.70
3260;BME280;68938;48.150;14.004;2023-04-09T09:04:02;98815.00;;;10.40;70.51
3260;BME280;68938;48.150;14.004;2023-04-09T09:06:32;98809.78;;;10.45;70.30
3260;BME280;68938;48.150;14.004;2023-04-09T09:11:41;98815.63;;;10.52;69.96
3260;BME280;68938;48.150;14.004;2023-04-09T09:14:14;98813.19;;;10.46;69.61
3260;BME280;68938;48.150;14.004;2023-04-09T09:17:01;98821.66;;;10.49;69.58
3260;BME280;68938;48.150;14.004;2023-04-09T09:19:31;98818.25;;;10.50;69.56
3260;BME280;68938;48.150;14.004;2023-04-09T09:22:03;98813.13;;;10.49;69.47
3260;BME280;68938;48.150;14.004;2023-04-09T09:24:31;98824.16;;;10.52;69.51
3260;BME280;68938;48.150;14.004;2023-04-09T09:26:59;98822.44;;;10.54;68.84
3260;BME280;68938;48.150;14.004;2023-04-09T09:29:27;98823.31;;;10.53;68.89
3260;BME280;68938;48.150;14.004;2023-04-09T09:31:55;98819.78;;;10.59;69.37
3260;BME280;68938;48.150;14.004;2023-04-09T09:34:23;98817.19;;;10.59;69.29
3260;BME280;68938;48.150;14.004;2023-04-09T09:36:50;98809.50;;;10.59;69.41
3260;BME280;68938;48.150;14.004;2023-04-09T09:39:17;98816.19;;;10.67;69.37
3260;BME280;68938;48.150;14.004;2023-04-09T09:41:45;98818.72;;;10.71;69.43
3260;BME280;68938;48.150;14.004;2023-04-09T09:44:29;98816.94;;;10.73;68.75
3260;BME280;68938;48.150;14.004;2023-04-09T09:46:58;98827.13;;;10.77;68.11
3260;BME280;68938;48.150;14.004;2023-04-09T09:49:26;98815.94;;;10.81;67.56
3260;BME280;68938;48.150;14.004;2023-04-09T09:51:56;98826.06;;;10.87;67.90
3260;BME280;68938;48.150;14.004;2023-04-09T09:54:26;98815.66;;;10.94;68.35
3260;BME280;68938;48.150;14.004;2023-04-09T09:56:59;98813.09;;;10.94;68.53
3260;BME280;68938;48.150;14.004;2023-04-09T09:59:33;98819.00;;;10.99;67.85
3260;BME280;68938;48.150;14.004;2023-04-09T10:02:04;98818.94;;;11.02;67.62
3260;BME280;68938;48.150;14.004;2023-04-09T10:04:35;98823.13;;;11.06;67.71
3260;BME280;68938;48.150;14.004;2023-04-09T10:07:06;98816.31;;;11.05;66.73
3260;BME280;68938;48.150;14.004;2023-04-09T10:09:46;98823.94;;;11.08;66.50
3260;BME280;68938;48.150;14.004;2023-04-09T10:12:15;98828.16;;;11.10;66.75
3260;BME280;68938;48.150;14.004;2023-04-09T10:14:44;98817.81;;;11.15;66.55
3260;BME280;68938;48.150;14.004;2023-04-09T10:17:11;98825.53;;;11.13;65.44
3260;BME280;68938;48.150;14.004;2023-04-09T10:19:43;98833.94;;;11.22;65.52
3260;BME280;68938;48.150;14.004;2023-04-09T10:22:25;98828.91;;;11.15;64.43
3260;BME280;68938;48.150;14.004;2023-04-09T10:24:54;98830.09;;;10.99;64.48
3260;BME280;68938;48.150;14.004;2023-04-09T10:27:21;98822.50;;;10.95;65.30
3260;BME280;68938;48.150;14.004;2023-04-09T10:29:49;98829.47;;;10.88;65.16
3260;BME280;68938;48.150;14.004;2023-04-09T10:32:23;98822.56;;;10.90;64.96
3260;BME280;68938;48.150;14.004;2023-04-09T10:34:50;98814.03;;;10.91;65.34
3260;BME280;68938;48.150;14.004;2023-04-09T10:37:22;98816.53;;;10.94;64.49
3260;BME280;68938;48.150;14.004;2023-04-09T10:39:51;98823.19;;;11.03;65.29
3260;BME280;68938;48.150;14.004;2023-04-09T10:42:23;98821.28;;;11.12;65.39
3260;BME280;68938;48.150;14.004;2023-04-09T10:45:05;98825.28;;;11.24;65.10
3260;BME280;68938;48.150;14.004;2023-04-09T10:47:37;98815.88;;;11.25;65.21
3260;BME280;68938;48.150;14.004;2023-04-09T10:50:31;98824.22;;;11.34;63.43
3260;BME280;68938;48.150;14.004;2023-04-09T10:52:58;98826.84;;;11.31;62.80
3260;BME280;68938;48.150;14.004;2023-04-09T10:55:36;98826.75;;;11.36;63.10
3260;BME280;68938;48.150;14.004;2023-04-09T10:58:05;98831.06;;;11.35;62.61
3260;BME280;68938;48.150;14.004;2023-04-09T11:00:41;98819.06;;;11.36;62.48
3260;BME280;68938;48.150;14.004;2023-04-09T11:03:27;98822.28;;;11.46;63.02
3260;BME280;68938;48.150;14.004;2023-04-09T11:06:02;98822.22;;;11.47;62.29
3260;BME280;68938;48.150;14.004;2023-04-09T11:08:31;98825.50;;;11.54;63.32
3260;BME280;68938;48.150;14.004;2023-04-09T11:10:59;98811.84;;;11.52;62.16
3260;BME280;68938;48.150;14.004;2023-04-09T11:13:29;98803.28;;;11.53;63.32
3260;BME280;68938;48.150;14.004;2023-04-09T11:15:57;98801.44;;;11.58;63.71
3260;BME280;68938;48.150;14.004;2023-04-09T11:18:26;98797.88;;;11.63;64.36
3260;BME280;68938;48.150;14.004;2023-04-09T11:20:59;98796.78;;;11.72;63.68
3260;BME280;68938;48.150;14.004;2023-04-09T11:23:27;98810.41;;;11.77;64.24
3260;BME280;68938;48.150;14.004;2023-04-09T11:25:54;98801.16;;;12.06;65.54
3260;BME280;68938;48.150;14.004;2023-04-09T11:28:22;98798.00;;;12.29;64.78
3260;BME280;68938;48.150;14.004;2023-04-09T11:30:50;98789.69;;;12.50;63.41
3260;BME280;68938;48.150;14.004;2023-04-09T11:33:18;98797.75;;;12.38;62.54
3260;BME280;68938;48.150;14.004;2023-04-09T11:35:46;98798.16;;;12.23;61.60
3260;BME280;68938;48.150;14.004;2023-04-09T11:38:16;98799.16;;;12.17;62.80
3260;BME280;68938;48.150;14.004;2023-04-09T11:40:44;98794.53;;;12.30;64.04
3260;BME280;68938;48.150;14.004;2023-04-09T11:43:11;98795.91;;;12.43;63.21
3260;BME280;68938;48.150;14.004;2023-04-09T11:45:38;98789.38;;;12.63;61.56
3260;BME280;68938;48.150;14.004;2023-04-09T11:48:05;98795.22;;;12.68;61.73
3260;BME280;68938;48.150;14.004;2023-04-09T11:50:32;98795.94;;;12.42;59.83
3260;BME280;68938;48.150;14.004;2023-04-09T11:53:00;98787.91;;;12.84;61.93
3260;BME280;68938;48.150;14.004;2023-04-09T11:55:28;98776.88;;;13.10;61.01
3260;BME280;68938;48.150;14.004;2023-04-09T11:57:59;98780.13;;;13.15;59.79
3260;BME280;68938;48.150;14.004;2023-04-09T12:00:27;98777.16;;;13.30;59.87
3260;BME280;68938;48.150;14.004;2023-04-09T12:03:00;98769.13;;;13.39;58.59
3260;BME280;68938;48.150;14.004;2023-04-09T12:05:33;98787.19;;;13.66;57.45
3260;BME280;68938;48.150;14.004;2023-04-09T12:08:06;98779.84;;;13.80;57.14
3260;BME280;68938;48.150;14.004;2023-04-09T12:10:36;98780.97;;;13.98;56.78
3260;BME280;68938;48.150;14.004;2023-04-09T12:13:08;98780.09;;;13.72;55.12
3260;BME280;68938;48.150;14.004;2023-04-09T12:15:37;98788.97;;;13.90;58.07
3260;BME280;68938;48.150;14.004;2023-04-09T12:18:12;98777.09;;;13.32;55.11
3260;BME280;68938;48.150;14.004;2023-04-09T12:20:41;98778.66;;;13.64;55.34
3260;BME280;68938;48.150;14.004;2023-04-09T12:23:10;98782.28;;;13.85;55.77
3260;BME280;68938;48.150;14.004;2023-04-09T12:25:39;98773.72;;;13.00;57.82
3260;BME280;68938;48.150;14.004;2023-04-09T12:28:10;98770.50;;;12.92;56.59
3260;BME280;68938;48.150;14.004;2023-04-09T12:30:38;98775.00;;;12.85;56.42
3260;BME280;68938;48.150;14.004;2023-04-09T12:33:05;98776.63;;;13.17;57.21
3260;BME280;68938;48.150;14.004;2023-04-09T12:35:36;98770.91;;;13.08;57.60
3260;BME280;68938;48.150;14.004;2023-04-09T12:38:03;98774.41;;;12.46;58.25
3260;BME280;68938;48.150;14.004;2023-04-09T12:40:30;98788.97;;;12.13;59.41
3260;BME280;68938;48.150;14.004;2023-04-09T12:42:57;98786.84;;;11.96;58.68
3260;BME280;68938;48.150;14.004;2023-04-09T12:45:24;98791.69;;;12.06;58.74
3260;BME280;68938;48.150;14.004;2023-04-09T12:47:51;98773.56;;;12.44;58.60
3260;BME280;68938;48.150;14.004;2023-04-09T12:50:18;98786.81;;;12.30;57.25
3260;BME280;68938;48.150;14.004;2023-04-09T12:52:45;98781.88;;;12.55;55.69
3260;BME280;68938;48.150;14.004;2023-04-09T12:55:13;98782.34;;;12.68;56.94
3260;BME280;68938;48.150;14.004;2023-04-09T12:57:44;98779.69;;;12.71;57.19
3260;BME280;68938;48.150;14.004;2023-04-09T13:00:12;98780.50;;;12.42;56.74
3260;BME280;68938;48.150;14.004;2023-04-09T13:02:39;98780.13;;;12.55;57.13
3260;BME280;68938;48.150;14.004;2023-04-09T13:05:07;98777.13;;;12.71;56.18
3260;BME280;68938;48.150;14.004;2023-04-09T13:07:34;98774.31;;;12.78;54.48
3260;BME280;68938;48.150;14.004;2023-04-09T13:10:01;98771.09;;;12.72;54.34
3260;BME280;68938;48.150;14.004;2023-04-09T13:12:28;98775.31;;;12.74;54.10
3260;BME280;68938;48.150;14.004;2023-04-09T13:14:54;98763.69;;;12.91;54.71
3260;BME280;68938;48.150;14.004;2023-04-09T13:17:21;98772.88;;;12.99;54.80
3260;BME280;68938;48.150;14.004;2023-04-09T13:19:49;98773.63;;;13.03;55.47